createdAt,value
2023-03-26T00:00:36.341Z,71.18
2023-03-26T00:01:36.382Z,71.39
2023-03-26T00:02:36.508Z,71.49
2023-03-26T00:03:36.373Z,71.59
2023-03-26T00:04:36.297Z,71.69
2023-03-26T00:05:36.278Z,71.69
2023-03-26T00:06:36.262Z,71.90
2023-03-26T00:07:36.308Z,72.00
2023-03-26T00:08:36.246Z,72.11
2023-03-26T00:09:36.232Z,72.31
2023-03-26T00:10:36.218Z,72.41
2023-03-26T00:11:36.529Z,72.61
2023-03-26T00:12:36.203Z,72.72
2023-03-26T00:13:36.181Z,72.72
2023-03-26T00:14:36.218Z,72.82
2023-03-26T00:15:36.154Z,72.82
2023-03-26T00:16:36.199Z,72.92
2023-03-26T00:17:36.182Z,73.03
2023-03-26T00:18:36.168Z,73.23
2023-03-26T00:19:36.122Z,73.44
2023-03-26T00:20:36.099Z,73.54
2023-03-26T00:21:36.106Z,73.64
2023-03-26T00:22:36.072Z,73.64
2023-03-26T00:23:36.072Z,73.95
2023-03-26T00:24:36.064Z,74.05
2023-03-26T00:25:36.035Z,74.26
2023-03-26T00:26:36.026Z,74.70
2023-03-26T00:27:36.031Z,74.80
2023-03-26T00:28:36.044Z,74.80
2023-03-26T00:29:35.987Z,75.11
2023-03-26T00:30:35.994Z,75.01
2023-03-26T00:31:35.978Z,75.11
2023-03-26T00:32:36.017Z,75.11
2023-03-26T00:33:35.962Z,75.31
2023-03-26T00:34:35.943Z,75.42
2023-03-26T00:35:35.958Z,75.73
2023-03-26T00:36:36.176Z,75.93
2023-03-26T00:37:35.895Z,76.27
2023-03-26T00:38:35.921Z,76.03
2023-03-26T00:39:35.877Z,75.82
2023-03-26T00:40:35.858Z,75.82
2023-03-26T00:41:35.856Z,75.93
2023-03-26T00:42:35.848Z,76.14
2023-03-26T00:43:35.874Z,76.24
2023-03-26T00:44:35.807Z,76.24
2023-03-26T00:45:36.122Z,76.34
2023-03-26T00:46:35.806Z,76.44
2023-03-26T00:47:35.806Z,76.44
2023-03-26T00:48:44.496Z,76.54
2023-03-26T00:49:36.769Z,76.58
2023-03-26T00:50:35.755Z,76.89
2023-03-26T00:51:35.764Z,77.40
2023-03-26T00:52:35.721Z,77.09
2023-03-26T00:53:35.735Z,77.50
2023-03-26T00:54:35.734Z,77.29
2023-03-26T00:55:35.694Z,77.29
2023-03-26T00:56:35.699Z,77.29
2023-03-26T00:57:36.403Z,77.40
2023-03-26T00:58:35.688Z,77.29
2023-03-26T00:59:35.650Z,76.95
2023-03-26T01:00:35.628Z,76.75
2023-03-26T01:01:35.664Z,76.75
2023-03-26T01:02:35.671Z,76.65
2023-03-26T01:03:35.686Z,76.65
2023-03-26T01:04:35.687Z,76.95
2023-03-26T01:05:35.584Z,76.44
2023-03-26T01:06:35.662Z,76.34
2023-03-26T01:07:35.550Z,76.44
2023-03-26T01:08:35.585Z,76.65
2023-03-26T01:09:35.536Z,76.85
2023-03-26T01:10:35.550Z,76.75
2023-03-26T01:11:35.512Z,76.75
2023-03-26T01:12:35.485Z,76.95
2023-03-26T01:13:35.508Z,77.36
2023-03-26T01:14:35.481Z,77.50
2023-03-26T01:15:42.760Z,77.50
2023-03-26T01:16:42.760Z,77.61
2023-03-26T01:17:43.518Z,77.91
2023-03-26T01:18:43.448Z,78.16
2023-03-26T01:19:43.418Z,78.25
2023-03-26T01:20:35.395Z,78.46
2023-03-26T01:21:38.151Z,78.67
2023-03-26T01:22:35.394Z,78.97
2023-03-26T01:23:35.670Z,78.97
2023-03-26T01:24:35.363Z,79.08
2023-03-26T01:25:35.370Z,79.08
2023-03-26T01:26:35.619Z,79.08
2023-03-26T01:27:35.375Z,79.08
2023-03-26T01:28:35.306Z,78.97
2023-03-26T01:29:35.296Z,78.87
2023-03-26T01:30:35.299Z,78.97
2023-03-26T01:31:35.266Z,78.97
2023-03-26T01:32:35.692Z,78.97
2023-03-26T01:33:35.367Z,79.08
2023-03-26T01:34:35.250Z,79.28
2023-03-26T01:35:35.248Z,79.42
2023-03-26T01:36:35.253Z,79.42
2023-03-26T01:37:35.199Z,79.63
2023-03-26T01:38:35.206Z,79.63
2023-03-26T01:39:35.193Z,79.83
2023-03-26T01:40:35.158Z,79.93
2023-03-26T01:41:35.165Z,79.93
2023-03-26T01:42:35.177Z,80.07
2023-03-26T01:43:35.137Z,80.07
2023-03-26T01:44:35.113Z,80.28
2023-03-26T01:45:35.102Z,80.38
2023-03-26T01:46:35.178Z,80.49
2023-03-26T01:47:35.102Z,80.49
2023-03-26T01:48:35.089Z,80.49
2023-03-26T01:49:35.074Z,80.58
2023-03-26T01:50:35.063Z,80.69
2023-03-26T01:51:35.039Z,80.90
2023-03-26T01:52:35.064Z,81.00
2023-03-26T01:53:34.998Z,81.00
2023-03-26T01:54:35.034Z,81.55
2023-03-26T01:55:36.830Z,81.55
2023-03-26T01:56:35.012Z,81.55
2023-03-26T01:57:35.003Z,81.55
2023-03-26T01:58:34.978Z,81.86
2023-03-26T01:59:34.960Z,82.17
2023-03-26T02:00:34.989Z,82.37
2023-03-26T02:01:35.076Z,82.62
2023-03-26T02:02:35.060Z,82.71
2023-03-26T02:03:34.991Z,82.92
2023-03-26T02:04:34.902Z,82.82
2023-03-26T02:05:35.171Z,83.13
2023-03-26T02:06:34.866Z,83.23
2023-03-26T02:07:34.862Z,83.33
2023-03-26T02:08:34.868Z,83.44
2023-03-26T02:09:34.839Z,83.54
2023-03-26T02:10:34.834Z,83.75
2023-03-26T02:11:35.957Z,83.44
2023-03-26T02:12:34.793Z,83.33
2023-03-26T02:13:34.852Z,83.23
2023-03-26T02:14:34.781Z,82.92
2023-03-26T02:15:34.761Z,82.92
2023-03-26T02:16:34.830Z,82.92
2023-03-26T02:17:34.784Z,82.68
2023-03-26T02:18:34.734Z,82.89
2023-03-26T02:19:34.766Z,82.47
2023-03-26T02:20:34.719Z,82.27
2023-03-26T02:21:34.708Z,82.06
2023-03-26T02:22:34.681Z,82.06
2023-03-26T02:23:34.706Z,81.76
2023-03-26T02:24:34.660Z,81.76
2023-03-26T02:25:34.635Z,81.65
2023-03-26T02:26:34.638Z,81.62
2023-03-26T02:27:34.618Z,81.62
2023-03-26T02:28:34.638Z,81.62
2023-03-26T02:29:34.597Z,81.51
2023-03-26T02:30:34.602Z,81.41
2023-03-26T02:31:34.609Z,81.30
2023-03-26T02:32:34.598Z,81.51
2023-03-26T02:33:34.581Z,81.30
2023-03-26T02:34:34.543Z,81.30
2023-03-26T02:35:34.668Z,81.20
2023-03-26T02:36:34.615Z,81.41
2023-03-26T02:37:34.490Z,81.62
2023-03-26T02:38:34.539Z,81.41
2023-03-26T02:39:34.490Z,81.41
2023-03-26T02:40:34.468Z,81.82
2023-03-26T02:41:34.468Z,81.62
2023-03-26T02:42:34.453Z,81.51
2023-03-26T02:43:34.461Z,81.62
2023-03-26T02:44:34.429Z,82.03
2023-03-26T02:45:34.486Z,81.92
2023-03-26T02:46:34.401Z,81.62
2023-03-26T02:47:34.429Z,81.71
2023-03-26T02:48:34.428Z,81.71
2023-03-26T02:49:34.356Z,81.62
2023-03-26T02:50:34.351Z,81.51
2023-03-26T02:51:34.354Z,81.71
2023-03-26T02:52:34.331Z,81.62
2023-03-26T02:53:34.323Z,81.51
2023-03-26T02:54:34.351Z,81.30
2023-03-26T02:55:34.306Z,81.30
2023-03-26T02:56:34.310Z,81.41
2023-03-26T02:57:34.279Z,81.41
2023-03-26T02:58:34.272Z,81.41
2023-03-26T02:59:34.297Z,81.30
2023-03-26T03:00:34.251Z,81.51
2023-03-26T03:01:34.260Z,81.30
2023-03-26T03:02:34.252Z,80.90
2023-03-26T03:03:34.263Z,80.96
2023-03-26T03:04:34.201Z,80.65
2023-03-26T03:05:34.199Z,80.55
2023-03-26T03:06:34.201Z,80.76
2023-03-26T03:07:34.158Z,80.55
2023-03-26T03:08:34.157Z,80.55
2023-03-26T03:09:34.154Z,80.96
2023-03-26T03:10:34.131Z,80.45
2023-03-26T03:11:34.116Z,80.45
2023-03-26T03:12:34.090Z,80.35
2023-03-26T03:13:34.126Z,80.45
2023-03-26T03:14:34.083Z,80.45
2023-03-26T03:15:34.060Z,80.45
2023-03-26T03:16:34.094Z,80.55
2023-03-26T03:17:34.371Z,80.65
2023-03-26T03:18:34.031Z,80.65
2023-03-26T03:19:34.041Z,80.35
2023-03-26T03:20:34.011Z,80.45
2023-03-26T03:21:34.003Z,80.45
2023-03-26T03:22:33.986Z,80.65
2023-03-26T03:23:33.996Z,80.96
2023-03-26T03:24:33.984Z,81.06
2023-03-26T03:25:33.947Z,81.16
2023-03-26T03:26:33.941Z,81.16
2023-03-26T03:27:33.932Z,81.48
2023-03-26T03:28:33.918Z,81.48
2023-03-26T03:29:33.969Z,81.68
2023-03-26T03:30:33.898Z,81.88
2023-03-26T03:31:33.881Z,81.99
2023-03-26T03:32:33.897Z,81.99
2023-03-26T03:33:33.872Z,82.09
2023-03-26T03:34:33.863Z,82.19
2023-03-26T03:35:33.889Z,82.29
2023-03-26T03:36:33.821Z,82.19
2023-03-26T03:37:33.815Z,82.19
2023-03-26T03:38:33.817Z,82.50
2023-03-26T03:39:33.781Z,82.60
2023-03-26T03:40:33.782Z,82.70
2023-03-26T03:41:33.760Z,83.12
2023-03-26T03:42:33.750Z,83.32
2023-03-26T03:43:33.772Z,83.73
2023-03-26T03:44:33.738Z,83.94
2023-03-26T03:45:33.993Z,83.83
2023-03-26T03:46:33.778Z,84.04
2023-03-26T03:47:33.728Z,84.14
2023-03-26T03:48:33.674Z,84.55
2023-03-26T03:49:33.693Z,84.90
2023-03-26T03:50:35.627Z,85.00
2023-03-26T03:51:33.644Z,85.21
2023-03-26T03:52:33.676Z,85.62
2023-03-26T03:53:33.621Z,85.52
2023-03-26T03:54:33.635Z,85.62
2023-03-26T03:55:33.594Z,85.93
2023-03-26T03:56:33.629Z,86.13
2023-03-26T03:57:33.595Z,86.24
2023-03-26T03:58:33.576Z,86.33
2023-03-26T03:59:33.584Z,86.75
2023-03-26T04:00:33.547Z,86.95
2023-03-26T04:01:33.543Z,87.05
2023-03-26T04:02:33.594Z,86.95
2023-03-26T04:03:34.406Z,87.46
2023-03-26T04:04:33.555Z,87.67
2023-03-26T04:05:33.482Z,87.88
2023-03-26T04:06:33.493Z,88.18
2023-03-26T04:07:33.456Z,88.23
2023-03-26T04:08:33.444Z,88.74
2023-03-26T04:09:33.437Z,88.95
2023-03-26T04:10:33.452Z,88.95
2023-03-26T04:11:33.420Z,89.56
2023-03-26T04:12:33.407Z,90.08
2023-03-26T04:13:33.409Z,90.18
2023-03-26T04:14:33.381Z,90.08
2023-03-26T04:15:33.396Z,90.08
2023-03-26T04:16:33.386Z,90.48
2023-03-26T04:17:33.392Z,90.69
2023-03-26T04:18:33.361Z,90.89
2023-03-26T04:19:33.327Z,91.14
2023-03-26T04:20:33.312Z,91.51
2023-03-26T04:21:33.306Z,91.76
2023-03-26T04:22:33.272Z,91.66
2023-03-26T04:23:33.288Z,91.66
2023-03-26T04:24:33.266Z,91.66
2023-03-26T04:25:33.298Z,91.76
2023-03-26T04:26:33.233Z,91.55
2023-03-26T04:27:33.225Z,91.55
2023-03-26T04:28:33.238Z,91.55
2023-03-26T04:29:33.208Z,91.66
2023-03-26T04:30:33.213Z,91.76
2023-03-26T04:31:33.264Z,91.97
2023-03-26T04:32:33.198Z,92.07
2023-03-26T04:33:33.159Z,91.76
2023-03-26T04:34:33.159Z,92.07
2023-03-26T04:35:33.130Z,92.38
2023-03-26T04:36:33.119Z,92.79
2023-03-26T04:37:33.108Z,92.99
2023-03-26T04:38:33.086Z,93.30
2023-03-26T04:39:33.087Z,93.61
2023-03-26T04:40:33.413Z,93.92
2023-03-26T04:41:33.073Z,94.23
2023-03-26T04:42:33.055Z,94.43
2023-03-26T04:43:33.035Z,94.54
2023-03-26T04:44:33.024Z,94.64
2023-03-26T04:45:33.022Z,94.95
2023-03-26T04:46:33.036Z,95.25
2023-03-26T04:47:33.013Z,95.56
2023-03-26T04:48:32.975Z,95.81
2023-03-26T04:49:32.977Z,95.81
2023-03-26T04:50:33.257Z,96.02
2023-03-26T04:51:32.952Z,96.02
2023-03-26T04:52:32.952Z,96.22
2023-03-26T04:53:32.937Z,96.33
2023-03-26T04:54:32.912Z,96.53
2023-03-26T04:55:32.927Z,96.64
2023-03-26T04:56:32.951Z,96.73
2023-03-26T04:57:32.893Z,96.84
2023-03-26T04:58:32.927Z,97.05
2023-03-26T04:59:32.871Z,97.05
2023-03-26T05:00:32.900Z,97.15
2023-03-26T05:01:32.896Z,97.05
2023-03-26T05:02:32.908Z,97.15
2023-03-26T05:03:32.817Z,97.15
2023-03-26T05:04:32.844Z,97.25
2023-03-26T05:05:32.823Z,97.25
2023-03-26T05:06:32.779Z,97.15
2023-03-26T05:07:32.758Z,97.25
2023-03-26T05:08:32.816Z,97.36
2023-03-26T05:09:32.734Z,97.36
2023-03-26T05:10:32.741Z,97.45
2023-03-26T05:11:32.713Z,97.36
2023-03-26T05:12:32.760Z,97.25
2023-03-26T05:13:32.691Z,97.05
2023-03-26T05:14:32.679Z,96.84
2023-03-26T05:15:32.683Z,96.73
2023-03-26T05:16:32.699Z,96.84
2023-03-26T05:17:32.662Z,96.73
2023-03-26T05:18:32.650Z,96.73
2023-03-26T05:19:32.633Z,96.73
2023-03-26T05:20:32.625Z,96.84
2023-03-26T05:21:32.616Z,96.84
2023-03-26T05:22:32.634Z,96.94
2023-03-26T05:23:32.590Z,97.15
2023-03-26T05:24:32.583Z,97.25
2023-03-26T05:25:32.575Z,97.15
2023-03-26T05:26:32.580Z,96.94
2023-03-26T05:27:32.538Z,96.84
2023-03-26T05:28:32.575Z,96.84
2023-03-26T05:29:32.526Z,96.84
2023-03-26T05:30:32.508Z,96.94
2023-03-26T05:31:32.479Z,97.05
2023-03-26T05:32:32.513Z,97.05
2023-03-26T05:33:32.554Z,97.15
2023-03-26T05:34:32.501Z,97.36
2023-03-26T05:35:32.479Z,97.36
2023-03-26T05:36:32.457Z,97.45
2023-03-26T05:37:32.457Z,97.56
2023-03-26T05:38:32.679Z,97.45
2023-03-26T05:39:32.478Z,97.45
2023-03-26T05:40:32.394Z,97.45
2023-03-26T05:41:32.422Z,97.45
2023-03-26T05:42:32.369Z,97.56
2023-03-26T05:43:32.367Z,97.56
2023-03-26T05:44:32.352Z,97.56
2023-03-26T05:45:32.377Z,97.77
2023-03-26T05:46:32.369Z,97.77
2023-03-26T05:47:32.367Z,97.87
2023-03-26T05:48:32.302Z,97.97
2023-03-26T05:49:32.314Z,98.07
2023-03-26T05:50:32.294Z,98.07
2023-03-26T05:51:32.313Z,98.18
2023-03-26T05:52:32.263Z,98.07
2023-03-26T05:53:32.255Z,97.97
2023-03-26T05:54:32.240Z,98.07
2023-03-26T05:55:32.222Z,98.18
2023-03-26T05:56:32.273Z,98.28
2023-03-26T05:57:32.222Z,98.28
2023-03-26T05:58:32.240Z,98.28
2023-03-26T05:59:32.190Z,98.49
2023-03-26T06:00:32.228Z,98.59
2023-03-26T06:01:32.183Z,98.59
2023-03-26T06:02:32.221Z,98.69
2023-03-26T06:03:32.258Z,98.79
2023-03-26T06:04:32.379Z,99.10
2023-03-26T06:05:32.109Z,99.10
2023-03-26T06:06:33.246Z,99.31
2023-03-26T06:07:32.089Z,99.31
2023-03-26T06:08:32.080Z,99.31
2023-03-26T06:09:32.079Z,99.56
2023-03-26T06:10:32.068Z,99.82
2023-03-26T06:11:32.121Z,99.82
2023-03-26T06:12:32.040Z,99.87
2023-03-26T06:13:32.024Z,99.87
2023-03-26T06:14:32.075Z,99.97
2023-03-26T06:15:32.015Z,99.99
2023-03-26T06:16:32.071Z,99.99
2023-03-26T06:17:32.015Z,99.99
2023-03-26T06:18:31.973Z,99.99
2023-03-26T06:19:31.970Z,99.99
2023-03-26T06:20:31.930Z,99.99
2023-03-26T06:21:31.926Z,99.99
2023-03-26T06:22:31.908Z,99.99
2023-03-26T06:23:31.911Z,99.99
2023-03-26T06:24:31.904Z,99.99
2023-03-26T06:25:31.887Z,99.99
2023-03-26T06:26:31.889Z,99.99
2023-03-26T06:27:38.873Z,99.99
2023-03-26T06:28:38.889Z,99.99
2023-03-26T06:29:38.865Z,99.99
2023-03-26T06:30:39.353Z,99.99
2023-03-26T06:31:31.833Z,99.99
2023-03-26T06:32:38.871Z,99.99
2023-03-26T06:33:31.793Z,99.99
2023-03-26T06:34:31.783Z,99.99
2023-03-26T06:35:31.855Z,99.99
2023-03-26T06:36:32.576Z,99.99
2023-03-26T06:37:34.590Z,99.99
2023-03-26T06:38:31.730Z,99.99
2023-03-26T06:39:31.737Z,99.99
2023-03-26T06:40:31.710Z,99.99
2023-03-26T06:41:31.732Z,99.99
2023-03-26T06:43:06.558Z,99.99
2023-03-26T06:43:32.695Z,99.99
2023-03-26T06:44:31.674Z,99.99
2023-03-26T06:45:31.662Z,99.99
2023-03-26T06:46:31.710Z,99.99
2023-03-26T06:47:31.704Z,99.99
2023-03-26T06:48:31.618Z,99.99
2023-03-26T06:49:31.619Z,99.99
2023-03-26T06:50:31.610Z,99.99
2023-03-26T06:51:31.634Z,99.99
2023-03-26T06:52:31.578Z,99.99
2023-03-26T06:53:31.583Z,99.99
2023-03-26T06:54:31.670Z,99.99
2023-03-26T06:55:31.570Z,99.99
2023-03-26T06:56:31.593Z,99.99
2023-03-26T06:57:31.547Z,99.99
2023-03-26T06:58:31.517Z,99.99
2023-03-26T06:59:33.279Z,99.99
2023-03-26T07:00:31.486Z,99.99
2023-03-26T07:01:31.553Z,99.99
2023-03-26T07:02:31.537Z,99.99
2023-03-26T07:03:31.507Z,99.99
2023-03-26T07:04:31.533Z,99.99
2023-03-26T07:05:31.441Z,99.99
2023-03-26T07:06:31.435Z,99.99
2023-03-26T07:07:31.408Z,99.99
2023-03-26T07:08:31.424Z,99.99
2023-03-26T07:09:31.451Z,99.99
2023-03-26T07:10:31.387Z,99.99
2023-03-26T07:11:31.388Z,99.99
2023-03-26T07:12:31.466Z,99.99
2023-03-26T07:13:31.432Z,99.99
2023-03-26T07:14:31.355Z,99.99
2023-03-26T07:15:31.318Z,99.99
2023-03-26T07:16:31.363Z,99.99
2023-03-26T07:17:31.385Z,99.99
2023-03-26T07:18:31.298Z,99.99
2023-03-26T07:19:31.360Z,99.99
2023-03-26T07:20:31.272Z,99.99
2023-03-26T07:21:31.294Z,99.99
2023-03-26T07:22:31.242Z,99.99
2023-03-26T07:23:31.252Z,99.99
2023-03-26T07:24:31.220Z,99.99
2023-03-26T07:25:31.207Z,99.99
2023-03-26T07:26:31.237Z,99.99
2023-03-26T07:27:31.189Z,99.99
2023-03-26T07:28:31.172Z,99.99
2023-03-26T07:29:31.174Z,99.99
2023-03-26T07:30:31.149Z,99.99
2023-03-26T07:31:31.254Z,99.99
2023-03-26T07:32:31.153Z,99.99
2023-03-26T07:33:31.187Z,99.99
2023-03-26T07:34:31.105Z,99.99
2023-03-26T07:35:31.199Z,99.99
2023-03-26T07:36:31.113Z,99.99
2023-03-26T07:37:31.097Z,99.99
2023-03-26T07:38:31.067Z,99.99
2023-03-26T07:39:31.123Z,99.99
2023-03-26T07:40:31.046Z,99.99
2023-03-26T07:41:31.040Z,99.99
2023-03-26T07:42:31.051Z,99.99
2023-03-26T07:43:31.022Z,99.99
2023-03-26T07:44:31.083Z,99.99
2023-03-26T07:45:31.005Z,99.99
2023-03-26T07:46:30.977Z,99.99
2023-03-26T07:47:30.974Z,99.99
2023-03-26T07:48:30.947Z,99.99
2023-03-26T07:49:30.936Z,99.99
2023-03-26T07:50:30.997Z,99.99
2023-03-26T07:51:30.934Z,99.99
2023-03-26T07:52:30.911Z,99.99
2023-03-26T07:53:30.896Z,99.99
2023-03-26T07:54:30.957Z,99.99
2023-03-26T07:55:30.905Z,99.99
2023-03-26T07:56:30.983Z,99.99
2023-03-26T07:57:30.886Z,99.99
2023-03-26T07:58:30.855Z,99.99
2023-03-26T07:59:30.834Z,99.99
2023-03-26T08:00:30.835Z,99.99
2023-03-26T08:01:31.140Z,99.99
2023-03-26T08:02:30.808Z,99.99
2023-03-26T08:03:30.924Z,99.99
2023-03-26T08:04:30.854Z,99.99
2023-03-26T08:05:30.761Z,99.99
2023-03-26T08:06:30.823Z,99.99
2023-03-26T08:07:30.793Z,99.99
2023-03-26T08:08:30.845Z,99.99
2023-03-26T08:09:30.706Z,99.99
2023-03-26T08:10:30.692Z,99.99
2023-03-26T08:11:30.717Z,99.99
2023-03-26T08:12:30.719Z,99.99
2023-03-26T08:13:30.663Z,99.99
2023-03-26T08:14:30.670Z,99.99
2023-03-26T08:15:38.144Z,99.99
2023-03-26T08:16:30.640Z,99.99
2023-03-26T08:17:37.657Z,99.99
2023-03-26T08:18:30.603Z,99.99
2023-03-26T08:19:30.619Z,99.99
2023-03-26T08:20:30.571Z,99.99
2023-03-26T08:21:30.570Z,99.99
2023-03-26T08:22:30.576Z,99.99
2023-03-26T08:23:30.540Z,99.99
2023-03-26T08:24:30.541Z,99.99
2023-03-26T08:25:30.587Z,99.99
2023-03-26T08:26:30.541Z,99.99
2023-03-26T08:27:30.586Z,99.99
2023-03-26T08:28:30.529Z,99.99
2023-03-26T08:29:30.821Z,99.99
2023-03-26T08:30:30.513Z,99.99
2023-03-26T08:31:30.517Z,99.99
2023-03-26T08:32:30.582Z,99.99
2023-03-26T08:33:30.469Z,99.99
2023-03-26T08:34:30.487Z,99.99
2023-03-26T08:35:30.449Z,99.99
2023-03-26T08:36:30.400Z,99.99
2023-03-26T08:37:30.423Z,99.99
2023-03-26T08:38:30.387Z,99.99
2023-03-26T08:39:30.372Z,99.99
2023-03-26T08:40:30.438Z,99.99
2023-03-26T08:41:30.342Z,99.99
2023-03-26T08:42:30.352Z,99.99
2023-03-26T08:43:30.359Z,99.99
2023-03-26T08:44:30.313Z,99.99
2023-03-26T08:45:30.298Z,99.99
2023-03-26T08:46:30.355Z,99.99
2023-03-26T08:47:30.354Z,99.99
2023-03-26T08:48:30.260Z,99.99
2023-03-26T08:49:30.275Z,99.99
2023-03-26T08:50:30.272Z,99.99
2023-03-26T08:51:30.220Z,99.99
2023-03-26T08:52:30.233Z,99.99
2023-03-26T08:53:30.547Z,99.99
2023-03-26T08:54:30.230Z,99.99
2023-03-26T08:55:30.178Z,99.99
2023-03-26T08:56:30.289Z,99.99
2023-03-26T08:57:30.178Z,99.99
2023-03-26T08:58:30.139Z,99.99
2023-03-26T08:59:30.209Z,99.99
2023-03-26T09:00:30.122Z,99.99
2023-03-26T09:01:30.168Z,99.99
2023-03-26T09:02:30.145Z,99.99
2023-03-26T09:03:30.189Z,99.99
2023-03-26T09:04:30.083Z,99.99
2023-03-26T09:05:30.112Z,99.99
2023-03-26T09:06:30.107Z,99.99
2023-03-26T09:07:30.046Z,99.99
2023-03-26T09:08:30.403Z,99.99
2023-03-26T09:09:30.042Z,99.99
2023-03-26T09:10:30.011Z,99.99
2023-03-26T09:11:30.062Z,99.99
2023-03-26T09:12:29.988Z,99.99
2023-03-26T09:13:29.972Z,99.99
2023-03-26T09:14:29.985Z,99.99
2023-03-26T09:15:29.988Z,99.99
2023-03-26T09:16:29.986Z,99.99
2023-03-26T09:17:29.972Z,99.99
2023-03-26T09:18:29.910Z,99.99
2023-03-26T09:19:29.916Z,99.99
2023-03-26T09:20:29.958Z,99.99
2023-03-26T09:21:29.900Z,99.99
2023-03-26T09:22:29.923Z,99.99
2023-03-26T09:23:29.893Z,99.99
2023-03-26T09:24:29.896Z,99.99
2023-03-26T09:25:29.842Z,99.99
2023-03-26T09:26:29.848Z,99.99
2023-03-26T09:27:29.818Z,99.99
2023-03-26T09:28:29.834Z,99.99
2023-03-26T09:29:31.661Z,99.93
2023-03-26T09:30:29.801Z,99.63
2023-03-26T09:31:29.851Z,99.63
2023-03-26T09:32:29.822Z,99.42
2023-03-26T09:33:29.776Z,99.21
2023-03-26T09:34:29.785Z,99.01
2023-03-26T09:35:29.879Z,99.07
2023-03-26T09:36:29.757Z,98.96
2023-03-26T09:37:29.714Z,98.82
2023-03-26T09:38:29.747Z,97.89
2023-03-26T09:39:29.701Z,97.58
2023-03-26T09:40:29.687Z,97.23
2023-03-26T09:41:29.700Z,97.03
2023-03-26T09:42:29.661Z,96.67
2023-03-26T09:43:29.665Z,96.16
2023-03-26T09:44:29.623Z,95.91
2023-03-26T09:45:29.703Z,95.97
2023-03-26T09:46:29.604Z,95.66
2023-03-26T09:47:29.662Z,95.62
2023-03-26T09:48:29.594Z,95.17
2023-03-26T09:49:29.559Z,94.55
2023-03-26T09:50:29.614Z,94.45
2023-03-26T09:51:29.574Z,93.01
2023-03-26T09:52:29.561Z,91.52
2023-03-26T09:53:29.542Z,92.65
2023-03-26T09:54:29.568Z,93.47
2023-03-26T09:55:29.505Z,93.00
2023-03-26T09:56:29.545Z,92.90
2023-03-26T09:57:29.497Z,92.49
2023-03-26T09:58:29.498Z,92.08
2023-03-26T09:59:29.471Z,92.08
2023-03-26T10:00:38.496Z,92.59
2023-03-26T10:01:29.444Z,93.06
2023-03-26T10:02:45.948Z,92.75
2023-03-26T10:03:30.462Z,91.93
2023-03-26T10:04:34.272Z,91.73
2023-03-26T10:05:29.390Z,91.73
2023-03-26T10:06:29.388Z,92.14
2023-03-26T10:07:29.348Z,91.63
2023-03-26T10:08:31.579Z,92.03
2023-03-26T10:09:29.341Z,92.24
2023-03-26T10:10:29.337Z,91.73
2023-03-26T10:11:29.570Z,91.63
2023-03-26T10:12:29.301Z,91.52
2023-03-26T10:13:29.305Z,91.63
2023-03-26T10:14:29.277Z,91.22
2023-03-26T10:15:29.328Z,91.99
2023-03-26T10:16:29.292Z,91.99
2023-03-26T10:17:29.273Z,92.19
2023-03-26T10:18:29.835Z,91.69
2023-03-26T10:19:29.257Z,91.52
2023-03-26T10:20:31.945Z,91.42
2023-03-26T10:21:29.216Z,92.55
2023-03-26T10:22:29.187Z,92.65
2023-03-26T10:23:29.170Z,92.34
2023-03-26T10:24:29.188Z,92.44
2023-03-26T10:25:29.289Z,92.75
2023-03-26T10:26:29.134Z,92.28
2023-03-26T10:27:29.128Z,92.69
2023-03-26T10:28:29.138Z,93.20
2023-03-26T10:29:30.854Z,93.10
2023-03-26T10:30:29.234Z,93.62
2023-03-26T10:31:29.077Z,94.48
2023-03-26T10:32:29.116Z,94.48
2023-03-26T10:33:29.066Z,94.37
2023-03-26T10:34:29.677Z,93.96
2023-03-26T10:35:29.091Z,93.45
2023-03-26T10:36:29.024Z,93.66
2023-03-26T10:37:29.017Z,94.07
2023-03-26T10:38:29.028Z,94.07
2023-03-26T10:39:36.749Z,93.76
2023-03-26T10:40:29.997Z,93.45
2023-03-26T10:41:29.263Z,93.96
2023-03-26T10:42:28.959Z,94.17
2023-03-26T10:43:28.948Z,94.68
2023-03-26T10:44:28.954Z,94.48
2023-03-26T10:45:29.035Z,94.07
2023-03-26T10:46:28.987Z,94.58
2023-03-26T10:47:29.136Z,94.78
2023-03-26T10:48:28.948Z,94.58
2023-03-26T10:49:28.902Z,94.89
2023-03-26T10:50:28.877Z,94.89
2023-03-26T10:51:28.849Z,94.58
2023-03-26T10:52:28.854Z,94.68
2023-03-26T10:53:28.853Z,94.21
2023-03-26T10:54:28.851Z,94.42
2023-03-26T10:55:28.849Z,94.21
2023-03-26T10:56:28.794Z,93.80
2023-03-26T10:57:28.831Z,94.01
2023-03-26T10:58:28.768Z,94.58
2023-03-26T10:59:28.807Z,94.89
2023-03-26T11:00:28.760Z,94.89
2023-03-26T11:01:28.847Z,94.68
2023-03-26T11:02:30.145Z,94.84
2023-03-26T11:03:28.781Z,94.70
2023-03-26T11:04:28.730Z,94.70
2023-03-26T11:05:28.981Z,94.34
2023-03-26T11:06:28.702Z,94.45
2023-03-26T11:07:28.687Z,94.20
2023-03-26T11:08:31.165Z,93.59
2023-03-26T11:09:28.683Z,93.18
2023-03-26T11:10:28.637Z,92.87
2023-03-26T11:11:28.629Z,91.69
2023-03-26T11:12:28.796Z,92.36
2023-03-26T11:13:28.616Z,92.77
2023-03-26T11:14:34.833Z,92.97
2023-03-26T11:15:29.664Z,92.87
2023-03-26T11:16:28.574Z,92.97
2023-03-26T11:17:39.312Z,92.97
2023-03-26T11:18:29.608Z,93.28
2023-03-26T11:19:28.616Z,93.89
2023-03-26T11:20:28.575Z,93.99
2023-03-26T11:21:28.531Z,93.38
2023-03-26T11:22:28.516Z,93.48
2023-03-26T11:23:28.528Z,94.20
2023-03-26T11:24:28.522Z,94.51
2023-03-26T11:25:28.481Z,94.30
2023-03-26T11:26:28.466Z,94.40
2023-03-26T11:27:28.465Z,93.93
2023-03-26T11:28:28.452Z,93.84
2023-03-26T11:29:30.939Z,94.24
2023-03-26T11:30:28.441Z,94.08
2023-03-26T11:31:28.419Z,94.59
2023-03-26T11:32:28.416Z,94.64
2023-03-26T11:33:32.813Z,94.33
2023-03-26T11:34:28.415Z,94.99
2023-03-26T11:35:40.701Z,95.40
2023-03-26T11:36:29.415Z,95.91
2023-03-26T11:37:28.365Z,96.22
2023-03-26T11:38:28.363Z,96.53
2023-03-26T11:39:28.390Z,96.98
2023-03-26T11:40:28.349Z,96.98
2023-03-26T11:41:28.312Z,96.82
2023-03-26T11:42:28.286Z,97.13
2023-03-26T11:43:28.303Z,97.44
2023-03-26T11:44:28.374Z,97.64
2023-03-26T11:45:28.259Z,98.16
2023-03-26T11:46:35.270Z,98.46
2023-03-26T11:47:36.587Z,98.67
2023-03-26T11:48:35.243Z,99.08
2023-03-26T11:49:28.236Z,99.22
2023-03-26T11:50:28.186Z,99.02
2023-03-26T11:51:28.177Z,98.82
2023-03-26T11:52:28.193Z,97.69
2023-03-26T11:53:28.165Z,97.58
2023-03-26T11:54:28.183Z,97.99
2023-03-26T11:55:28.136Z,97.69
2023-03-26T11:56:28.149Z,97.89
2023-03-26T11:57:28.169Z,97.48
2023-03-26T11:58:28.129Z,97.17
2023-03-26T11:59:29.200Z,97.07
2023-03-26T12:00:28.079Z,97.17
2023-03-26T12:01:28.066Z,93.83
2023-03-26T12:02:28.140Z,93.77
2023-03-26T12:03:28.041Z,95.47
2023-03-26T12:04:29.996Z,96.44
2023-03-26T12:05:28.032Z,95.62
2023-03-26T12:06:28.026Z,97.06
2023-03-26T12:07:28.016Z,97.67
2023-03-26T12:08:28.016Z,97.42
2023-03-26T12:09:28.005Z,97.73
2023-03-26T12:10:27.963Z,98.14
2023-03-26T12:11:27.977Z,98.76
2023-03-26T12:12:27.940Z,98.92
2023-03-26T12:13:27.937Z,98.82
2023-03-26T12:14:27.928Z,98.92
2023-03-26T12:15:27.928Z,99.12
2023-03-26T12:16:27.966Z,99.33
2023-03-26T12:17:31.382Z,98.76
2023-03-26T12:18:28.222Z,98.04
2023-03-26T12:19:27.928Z,97.83
2023-03-26T12:20:28.709Z,97.42
2023-03-26T12:21:27.828Z,97.32
2023-03-26T12:22:27.825Z,97.42
2023-03-26T12:23:27.805Z,97.32
2023-03-26T12:24:27.812Z,96.60
2023-03-26T12:25:27.774Z,97.28
2023-03-26T12:26:27.804Z,97.28
2023-03-26T12:27:27.772Z,95.53
2023-03-26T12:28:27.787Z,94.61
2023-03-26T12:29:27.815Z,95.02
2023-03-26T12:30:27.724Z,95.79
2023-03-26T12:31:27.750Z,96.20
2023-03-26T12:32:39.054Z,94.77
2023-03-26T12:33:28.751Z,93.48
2023-03-26T12:34:27.674Z,92.50
2023-03-26T12:35:28.665Z,93.68
2023-03-26T12:36:27.657Z,95.02
2023-03-26T12:37:27.634Z,94.51
2023-03-26T12:38:27.622Z,94.98
2023-03-26T12:40:10.520Z,95.03
2023-03-26T12:40:28.594Z,93.60
2023-03-26T12:43:40.451Z,92.21
2023-03-26T12:44:46.778Z,93.80
2023-03-26T12:44:52.620Z,93.08
2023-03-26T12:44:55.667Z,91.59
2023-03-26T12:45:28.578Z,92.41
2023-03-26T12:47:56.174Z,93.95
2023-03-26T12:48:00.392Z,94.99
2023-03-26T12:48:28.595Z,93.55
2023-03-26T12:49:27.534Z,93.66
2023-03-26T12:50:34.448Z,92.88
2023-03-26T12:51:28.740Z,94.21
2023-03-26T12:52:27.481Z,93.45